Time;durP1;ratioP1;P1;durP2;ratioP2;P2;SDS_P1;SDS_P2;PMS_P1;PMS_P2;Temp;Humidity;BMP_temperature;BMP_pressure;BME280_temperature;BME280_humidity;BME280_pressure;Samples;Min_cycle;Max_cycle;Signal;HPM_P1;HPM_P2
2020/12/10 00:00:43;;;;;;;85.53;37.70;;;;;;;-2.67;100.00;98542.41;2081836;28;20277;-73
2020/12/10 00:01:45;;;;;;;84.93;37.73;;;;;;;-2.67;100.00;98540.59;2081891;28;20215;-73
2020/12/10 00:02:45;;;;;;;84.97;37.90;;;;;;;-2.71;100.00;98536.00;2080848;28;20227;-73
2020/12/10 00:03:47;;;;;;;86.93;38.00;;;;;;;-2.71;100.00;98539.41;2072951;28;20254;-73
2020/12/10 00:04:48;;;;;;;84.05;39.35;;;;;;;-2.84;100.00;98521.34;2080983;28;20273;-73
2020/12/10 00:05:49;;;;;;;85.70;39.53;;;;;;;-2.82;100.00;98526.34;2081759;28;20269;-72
2020/12/10 00:06:50;;;;;;;90.80;41.50;;;;;;;-2.75;100.00;98525.25;2081729;28;20586;-72
2020/12/10 00:07:51;;;;;;;78.40;34.92;;;;;;;-2.65;100.00;98535.94;2080944;28;20314;-73
2020/12/10 00:08:53;;;;;;;87.83;39.33;;;;;;;-2.68;100.00;98531.16;2081226;28;20231;-73
2020/12/10 00:09:54;;;;;;;89.57;40.50;;;;;;;-2.65;100.00;98524.69;2081448;28;20239;-72
2020/12/10 00:10:55;;;;;;;92.18;39.65;;;;;;;-2.65;100.00;98528.09;2081628;28;20247;-73
2020/12/10 00:11:56;;;;;;;83.50;39.00;;;;;;;-2.75;100.00;98533.06;2081019;28;20693;-73
2020/12/10 00:12:58;;;;;;;89.60;38.80;;;;;;;-2.74;100.00;98529.44;2072364;28;20601;-72
2020/12/10 00:13:59;;;;;;;93.15;38.45;;;;;;;-2.74;100.00;98529.44;2072703;28;20239;-72
2020/12/10 00:15:00;;;;;;;84.17;38.77;;;;;;;-2.72;100.00;98529.22;2081056;28;20227;-72
2020/12/10 00:16:01;;;;;;;84.93;38.80;;;;;;;-2.71;100.00;98525.56;2081926;28;20720;-73
2020/12/10 00:17:02;;;;;;;86.47;38.63;;;;;;;-2.71;100.00;98528.97;2081027;28;20671;-72
2020/12/10 00:18:03;;;;;;;89.78;39.17;;;;;;;-2.67;100.00;98516.28;2081224;28;20223;-72
2020/12/10 00:19:04;;;;;;;82.73;37.77;;;;;;;-2.61;100.00;98525.81;2081757;28;20239;-72
2020/12/10 00:20:05;;;;;;;91.22;39.92;;;;;;;-2.60;100.00;98519.59;2081656;28;20227;-72
2020/12/10 00:21:07;;;;;;;91.15;40.13;;;;;;;-2.72;100.00;98510.94;2081003;28;20227;-72
2020/12/10 00:22:08;;;;;;;83.75;38.65;;;;;;;-2.69;100.00;98518.34;2071967;28;20231;-73
2020/12/10 00:23:09;;;;;;;82.97;39.37;;;;;;;-2.66;100.00;98518.66;2081084;28;20233;-73
2020/12/10 00:24:11;;;;;;;94.18;40.30;;;;;;;-2.68;100.00;98519.94;2081628;28;20277;-73
2020/12/10 00:25:12;;;;;;;90.55;42.15;;;;;;;-2.68;100.00;98506.88;2081533;28;20231;-72
2020/12/10 00:26:13;;;;;;;89.78;40.17;;;;;;;-2.62;100.00;98516.41;2081617;28;20220;-73
2020/12/10 00:27:15;;;;;;;89.53;40.43;;;;;;;-2.59;100.00;98505.53;2081796;28;20678;-72
2020/12/10 00:28:16;;;;;;;87.43;39.20;;;;;;;-2.58;100.00;98515.75;2080650;28;20234;-73
2020/12/10 00:29:17;;;;;;;86.03;41.37;;;;;;;-2.54;100.00;98521.28;2080998;28;20313;-72
2020/12/10 00:30:17;;;;;;;86.53;38.72;;;;;;;-2.53;100.00;98516.88;2080399;28;20250;-73
2020/12/10 00:31:19;;;;;;;90.77;39.70;;;;;;;-2.59;100.00;98522.00;2080958;28;20306;-73
2020/12/10 00:32:19;;;;;;;83.32;39.33;;;;;;;-2.79;100.00;98497.19;2080186;28;20771;-73
2020/12/10 00:33:20;;;;;;;79.80;38.33;;;;;;;-2.65;100.00;98514.25;2080740;28;20254;-73
2020/12/10 00:34:21;;;;;;;86.43;38.78;;;;;;;-2.66;100.00;98515.28;2081751;28;20218;-73
2020/12/10 00:35:22;;;;;;;90.03;39.43;;;;;;;-2.55;100.00;98519.72;2081199;28;20235;-74
2020/12/10 00:36:23;;;;;;;88.85;41.45;;;;;;;-2.62;100.00;98513.78;2081595;28;20230;-73
2020/12/10 00:37:25;;;;;;;84.67;39.90;;;;;;;-2.63;100.00;98517.41;2081590;28;20307;-73
2020/12/10 00:38:27;;;;;;;83.13;39.00;;;;;;;-2.70;100.00;98516.72;2081669;28;20696;-73
2020/12/10 00:39:29;;;;;;;78.85;37.95;;;;;;;-2.68;100.00;98512.09;2081692;28;20577;-73
2020/12/10 00:40:30;;;;;;;85.28;35.78;;;;;;;-2.67;100.00;98517.09;2081678;28;20223;-73
2020/12/10 00:41:31;;;;;;;81.60;37.70;;;;;;;-2.75;100.00;98514.00;2081580;28;20273;-73
2020/12/10 00:42:32;;;;;;;89.60;39.30;;;;;;;-2.78;100.00;98511.81;2080741;28;20227;-73
2020/12/10 00:43:33;;;;;;;84.10;39.30;;;;;;;-2.91;100.00;98500.56;2072552;28;20231;-72
2020/12/10 00:44:34;;;;;;;82.53;37.92;;;;;;;-2.87;100.00;98511.34;2080894;28;20227;-72
2020/12/10 00:45:35;;;;;;;88.73;38.67;;;;;;;-2.86;100.00;98513.75;2081710;28;20302;-73
2020/12/10 00:46:39;;;;;;;77.60;37.38;;;;;;;-2.83;100.00;98511.69;2080829;28;20220;-73
2020/12/10 00:47:40;;;;;;;84.65;38.20;;;;;;;-2.88;100.00;98515.75;2080442;28;20258;-73
2020/12/10 00:48:41;;;;;;;85.05;37.50;;;;;;;-2.93;100.00;98502.59;2080728;28;20223;-73
2020/12/10 00:49:42;;;;;;;84.83;39.37;;;;;;;-2.85;100.00;98502.28;2080787;28;20339;-73
2020/12/10 00:50:43;;;;;;;80.75;37.92;;;;;;;-2.79;100.00;98503.19;2080791;28;20709;-73
2020/12/10 00:51:45;;;;;;;95.07;38.73;;;;;;;-2.76;100.00;98502.75;2080795;28;20653;-73
2020/12/10 00:52:46;;;;;;;85.10;37.28;;;;;;;-2.69;100.00;98511.31;2080479;28;20226;-73
2020/12/10 00:53:48;;;;;;;79.18;38.22;;;;;;;-2.74;100.00;98511.16;2080296;28;20344;-72
2020/12/10 00:54:50;;;;;;;85.13;37.70;;;;;;;-2.78;100.00;98512.63;2080738;28;20227;-73
2020/12/10 00:55:54;;;;;;;93.85;39.33;;;;;;;-2.78;100.00;98514.44;2080213;28;20219;-74
2020/12/10 00:56:55;;;;;;;82.45;38.55;;;;;;;-2.75;100.00;98517.41;2072704;28;20224;-73
2020/12/10 00:57:56;;;;;;;95.27;40.03;;;;;;;-2.74;100.00;98511.16;2080263;28;20745;-73
2020/12/10 00:58:57;;;;;;;85.88;39.35;;;;;;;-2.67;100.00;98519.69;2080615;28;20278;-73
2020/12/10 00:59:58;;;;;;;81.73;38.00;;;;;;;-2.66;100.00;98510.03;2081334;28;20251;-73
2020/12/10 01:00:58;;;;;;;82.43;35.30;;;;;;;-2.64;100.00;98508.78;2080291;28;20230;-73
2020/12/10 01:02:00;;;;;;;89.73;39.13;;;;;;;-2.67;100.00;98506.66;2072046;28;20668;-73
2020/12/10 01:03:00;;;;;;;79.82;37.15;;;;;;;-2.62;100.00;98500.72;2080865;28;20231;-73
2020/12/10 01:04:02;;;;;;;87.30;38.30;;;;;;;-2.61;100.00;98507.53;2080524;28;20235;-72
2020/12/10 01:05:02;;;;;;;92.25;39.78;;;;;;;-2.66;100.00;98512.66;2080030;28;20227;-73
2020/12/10 01:06:04;;;;;;;79.23;37.60;;;;;;;-2.74;100.00;98507.75;2079986;28;20219;-73
2020/12/10 01:07:04;;;;;;;88.55;39.35;;;;;;;-2.78;100.00;98498.75;2080707;28;20450;-73
2020/12/10 01:08:06;;;;;;;83.63;40.43;;;;;;;-2.80;100.00;98509.44;2080531;28;20228;-73
2020/12/10 01:09:07;;;;;;;85.35;41.03;;;;;;;-2.80;100.00;98495.59;2072186;28;20643;-73
2020/12/10 01:10:09;;;;;;;85.20;38.58;;;;;;;-2.69;100.00;98497.44;2080297;28;20223;-74
2020/12/10 01:11:10;;;;;;;89.47;39.63;;;;;;;-2.69;100.00;98502.66;2080303;28;20227;-73
2020/12/10 01:12:11;;;;;;;85.80;40.67;;;;;;;-2.83;100.00;98490.81;2080660;28;20219;-73
2020/12/10 01:13:12;;;;;;;94.53;39.53;;;;;;;-2.75;100.00;98493.13;2080591;28;20234;-73
2020/12/10 01:14:13;;;;;;;86.60;39.13;;;;;;;-2.67;100.00;98503.22;2080523;28;20306;-73
2020/12/10 01:15:14;;;;;;;85.65;38.30;;;;;;;-2.68;100.00;98501.66;2081343;28;20215;-73
2020/12/10 01:16:15;;;;;;;89.13;38.70;;;;;;;-2.65;100.00;98506.41;2081456;28;20243;-73
2020/12/10 01:17:16;;;;;;;86.65;39.67;;;;;;;-2.75;100.00;98488.69;2080491;28;20215;-72
2020/12/10 01:18:17;;;;;;;85.63;38.47;;;;;;;-2.71;100.00;98486.41;2080798;28;20746;-72
2020/12/10 01:19:18;;;;;;;91.43;39.50;;;;;;;-2.78;100.00;98486.53;2080423;28;20648;-72
2020/12/10 01:20:19;;;;;;;96.10;42.30;;;;;;;-2.78;100.00;98476.09;2072102;28;20266;-72
2020/12/10 01:21:27;;;;;;;94.13;40.75;;;;;;;-2.82;100.00;98474.13;2080420;28;20694;-73
2020/12/10 01:22:28;;;;;;;95.85;40.15;;;;;;;-2.72;100.00;98487.44;2080225;28;20224;-73
2020/12/10 01:23:29;;;;;;;93.80;39.78;;;;;;;-2.76;100.00;98481.88;2080334;28;20231;-73
2020/12/10 01:24:30;;;;;;;85.17;40.50;;;;;;;-2.73;100.00;98478.03;2081197;28;20229;-73
2020/12/10 01:25:31;;;;;;;93.72;39.95;;;;;;;-2.78;100.00;98475.28;2080312;28;20579;-73
2020/12/10 01:26:33;;;;;;;95.00;40.22;;;;;;;-2.77;100.00;98479.50;2080474;28;20223;-73
2020/12/10 01:27:34;;;;;;;96.90;40.83;;;;;;;-2.75;100.00;98477.44;2081146;28;20756;-73
2020/12/10 01:28:35;;;;;;;86.87;37.73;;;;;;;-2.81;100.00;98478.34;2080478;28;20648;-73
2020/12/10 01:29:36;;;;;;;88.47;40.42;;;;;;;-2.74;100.00;98473.81;2071781;28;20220;-74
2020/12/10 01:30:37;;;;;;;86.33;40.03;;;;;;;-2.73;100.00;98473.59;2080272;28;20251;-73
2020/12/10 01:31:38;;;;;;;89.07;40.70;;;;;;;-2.83;100.00;98468.13;2081237;28;20228;-73
2020/12/10 01:32:39;;;;;;;91.60;41.20;;;;;;;-2.90;100.00;98465.59;2080315;28;20783;-73
2020/12/10 01:33:40;;;;;;;94.35;42.92;;;;;;;-2.90;100.00;98470.03;2080536;28;20220;-73
2020/12/10 01:34:41;;;;;;;91.10;40.87;;;;;;;-2.87;100.00;98467.78;2080171;28;20302;-73
2020/12/10 01:35:42;;;;;;;103.57;42.40;;;;;;;-2.79;100.00;98466.66;2079999;28;20234;-73
2020/12/10 01:36:43;;;;;;;101.80;44.70;;;;;;;-2.90;100.00;98464.81;2080425;28;20227;-73
2020/12/10 01:37:43;;;;;;;104.97;44.20;;;;;;;-2.91;100.00;98468.44;2079919;28;20223;-73
2020/12/10 01:38:45;;;;;;;107.43;44.77;;;;;;;-2.88;100.00;98470.59;2080566;28;20298;-73
2020/12/10 01:39:45;;;;;;;97.82;43.10;;;;;;;-2.81;100.00;98470.50;2081235;28;20727;-73
2020/12/10 01:40:50;;;;;;;116.47;45.17;;;;;;;-2.83;100.00;98469.94;2081003;28;20664;-72
2020/12/10 01:41:51;;;;;;;116.38;45.05;;;;;;;-2.85;100.00;98478.00;2080999;28;20222;-73
2020/12/10 01:42:52;;;;;;;95.93;42.60;;;;;;;-2.79;100.00;98478.91;2080824;28;20258;-74
2020/12/10 01:43:59;;;;;;;100.20;43.03;;;;;;;-2.77;100.00;98475.06;2080992;28;20230;-73
2020/12/10 01:45:01;;;;;;;93.68;42.05;;;;;;;-2.80;100.00;98470.28;2081087;28;20224;-73
2020/12/10 01:46:01;;;;;;;101.05;45.30;;;;;;;-2.74;100.00;98479.03;2081126;28;20289;-73
2020/12/10 01:47:03;;;;;;;100.33;42.53;;;;;;;-2.86;100.00;98460.75;2081143;28;20278;-73
2020/12/10 01:48:03;;;;;;;106.25;44.10;;;;;;;-2.81;100.00;98473.13;2080371;28;20238;-72
2020/12/10 01:49:06;;;;;;;103.53;44.93;;;;;;;-2.77;100.00;98479.50;2080382;28;20693;-73
2020/12/10 01:50:08;;;;;;;108.13;45.35;;;;;;;-2.80;100.00;98469.47;2080766;28;20223;-74
2020/12/10 01:51:09;;;;;;;104.53;44.75;;;;;;;-2.88;100.00;98470.59;2081032;28;20227;-73
2020/12/10 01:52:10;;;;;;;107.07;44.63;;;;;;;-2.86;100.00;98461.53;2081020;28;20223;-72
2020/12/10 01:53:11;;;;;;;100.23;43.73;;;;;;;-2.79;100.00;98463.25;2081055;28;20269;-73
2020/12/10 01:54:12;;;;;;;97.60;41.85;;;;;;;-2.75;100.00;98465.19;2081104;28;20231;-73
2020/12/10 01:55:13;;;;;;;107.40;44.83;;;;;;;-2.81;100.00;98463.47;2081009;28;20216;-73
2020/12/10 01:56:16;;;;;;;101.32;42.30;;;;;;;-2.86;100.00;98455.53;2080165;28;20227;-73
2020/12/10 01:57:17;;;;;;;103.90;42.08;;;;;;;-2.84;100.00;98450.88;2072332;28;20227;-72
2020/12/10 01:58:18;;;;;;;101.63;44.40;;;;;;;-2.77;100.00;98443.75;2080317;28;20219;-73
2020/12/10 01:59:19;;;;;;;98.80;45.20;;;;;;;-2.80;100.00;98438.97;2081142;28;20685;-73
2020/12/10 02:00:20;;;;;;;108.22;46.13;;;;;;;-2.82;100.00;98448.84;2080074;28;20227;-73
2020/12/10 02:01:21;;;;;;;99.17;44.17;;;;;;;-2.86;100.00;98437.25;2080235;28;20226;-72
2020/12/10 02:02:22;;;;;;;95.57;43.42;;;;;;;-2.77;100.00;98432.50;2079542;28;20227;-73
2020/12/10 02:03:23;;;;;;;104.03;45.40;;;;;;;-2.78;100.00;98436.13;2080129;28;20223;-73
2020/12/10 02:04:28;;;;;;;105.85;44.50;;;;;;;-2.75;100.00;98427.84;2080772;28;20223;-72
2020/12/10 02:05:30;;;;;;;103.30;45.60;;;;;;;-2.66;100.00;98435.13;2080141;28;20647;-73
2020/12/10 02:06:30;;;;;;;99.03;45.92;;;;;;;-2.69;100.00;98432.97;2080230;28;20669;-73
2020/12/10 02:07:31;;;;;;;100.43;44.97;;;;;;;-2.67;100.00;98433.53;2071877;28;20302;-72
2020/12/10 02:08:32;;;;;;;101.70;46.85;;;;;;;-2.64;100.00;98427.84;2080219;28;20222;-73
2020/12/10 02:09:33;;;;;;;106.13;47.23;;;;;;;-2.67;100.00;98422.31;2080624;28;20310;-72
2020/12/10 02:10:35;;;;;;;99.03;44.22;;;;;;;-2.72;100.00;98427.41;2080036;28;20299;-73
2020/12/10 02:11:37;;;;;;;92.13;42.22;;;;;;;-2.69;100.00;98430.38;2071584;28;20212;-72
2020/12/10 02:12:39;;;;;;;100.15;44.72;;;;;;;-2.72;100.00;98416.94;2071075;28;20694;-73
2020/12/10 02:13:40;;;;;;;96.68;41.15;;;;;;;-2.72;100.00;98417.75;2080061;28;20247;-73
2020/12/10 02:14:41;;;;;;;96.13;43.33;;;;;;;-2.62;100.00;98432.84;2080905;28;20720;-72
2020/12/10 02:15:47;;;;;;;105.67;45.10;;;;;;;-2.67;100.00;98435.34;2080044;28;20553;-73
2020/12/10 02:16:52;;;;;;;98.32;42.80;;;;;;;-2.68;100.00;98418.09;2079922;28;20219;-73
2020/12/10 02:17:54;;;;;;;102.15;45.53;;;;;;;-2.69;100.00;98429.56;2080432;28;20231;-73
2020/12/10 02:18:55;;;;;;;102.00;45.13;;;;;;;-2.76;100.00;98423.66;2080778;28;20224;-73
2020/12/10 02:19:56;;;;;;;104.93;45.13;;;;;;;-2.75;100.00;98425.25;2080016;28;20234;-73
2020/12/10 02:20:57;;;;;;;96.10;44.63;;;;;;;-2.76;100.00;98424.44;2080201;28;20262;-73
2020/12/10 02:21:58;;;;;;;101.87;45.27;;;;;;;-2.75;100.00;98431.25;2079945;28;20234;-73
2020/12/10 02:23:00;;;;;;;100.97;45.33;;;;;;;-2.79;100.00;98424.09;2080065;28;20451;-72
2020/12/10 02:24:02;;;;;;;100.53;44.50;;;;;;;-2.78;100.00;98420.44;2080696;28;20278;-73
2020/12/10 02:25:03;;;;;;;91.95;44.35;;;;;;;-2.83;100.00;98425.56;2079821;28;20270;-72
2020/12/10 02:26:04;;;;;;;99.77;45.07;;;;;;;-2.82;100.00;98424.53;2071814;28;20304;-73
2020/12/10 02:27:04;;;;;;;110.35;46.42;;;;;;;-2.79;100.00;98429.31;2071942;28;20224;-74
2020/12/10 02:28:10;;;;;;;101.53;44.13;;;;;;;-2.67;100.00;98427.53;2080083;28;20239;-73
2020/12/10 02:29:11;;;;;;;102.05;43.67;;;;;;;-2.62;100.00;98430.22;2079702;28;20239;-73
2020/12/10 02:30:12;;;;;;;90.37;42.13;;;;;;;-2.72;100.00;98419.56;2080062;28;20227;-73
2020/12/10 02:31:12;;;;;;;96.45;43.20;;;;;;;-2.73;100.00;98434.44;2079870;28;20457;-73
2020/12/10 02:32:14;;;;;;;98.93;45.43;;;;;;;-2.70;100.00;98426.13;2070814;28;20303;-74
2020/12/10 02:33:15;;;;;;;101.88;43.50;;;;;;;-2.73;100.00;98424.00;2071397;28;20220;-73
2020/12/10 02:34:16;;;;;;;109.13;45.17;;;;;;;-2.70;100.00;98420.91;2080034;28;20227;-73
2020/12/10 02:35:17;;;;;;;103.25;44.33;;;;;;;-2.64;100.00;98427.06;2079762;28;20237;-73
2020/12/10 02:36:18;;;;;;;101.70;43.63;;;;;;;-2.66;100.00;98424.69;2080071;28;20231;-73
2020/12/10 02:37:19;;;;;;;109.07;44.75;;;;;;;-2.61;100.00;98424.00;2080603;28;20224;-72
2020/12/10 02:38:21;;;;;;;103.13;45.77;;;;;;;-2.70;100.00;98412.28;2079894;28;20247;-73
2020/12/10 02:39:21;;;;;;;99.40;44.38;;;;;;;-2.65;100.00;98422.88;2072042;28;20224;-73
2020/12/10 02:40:23;;;;;;;101.43;44.60;;;;;;;-2.71;100.00;98416.72;2070776;28;20314;-73
2020/12/10 02:41:24;;;;;;;110.18;46.92;;;;;;;-2.72;100.00;98419.56;2080152;28;20215;-73
2020/12/10 02:42:25;;;;;;;110.10;46.23;;;;;;;-2.73;100.00;98423.19;2080762;28;20257;-73
2020/12/10 02:43:26;;;;;;;106.00;47.25;;;;;;;-2.81;100.00;98416.50;2080525;28;20575;-73
2020/12/10 02:44:27;;;;;;;101.63;42.33;;;;;;;-2.84;100.00;98406.50;2079718;28;20315;-73
2020/12/10 02:45:28;;;;;;;106.82;46.53;;;;;;;-2.82;100.00;98409.69;2079773;28;20224;-73
2020/12/10 02:46:30;;;;;;;105.18;45.75;;;;;;;-2.87;100.00;98407.75;2079876;28;20294;-73
2020/12/10 02:47:30;;;;;;;110.03;45.35;;;;;;;-2.78;100.00;98407.41;2080552;28;20231;-73
2020/12/10 02:48:31;;;;;;;107.40;45.27;;;;;;;-2.83;100.00;98409.91;2080444;28;20248;-73
2020/12/10 02:49:32;;;;;;;109.20;45.63;;;;;;;-2.80;100.00;98417.28;2079421;28;20311;-73
2020/12/10 02:50:33;;;;;;;116.37;47.07;;;;;;;-2.88;100.00;98413.97;2079975;28;20227;-72
2020/12/10 02:51:34;;;;;;;104.80;45.25;;;;;;;-2.79;100.00;98411.03;2080523;28;20230;-73
2020/12/10 02:52:36;;;;;;;101.95;44.88;;;;;;;-2.82;100.00;98406.28;2080563;28;20609;-72
2020/12/10 02:53:38;;;;;;;107.75;43.05;;;;;;;-2.81;100.00;98400.81;2079471;28;20693;-74
2020/12/10 02:54:39;;;;;;;102.32;44.90;;;;;;;-2.78;100.00;98404.78;2071672;28;20583;-73
2020/12/10 02:55:40;;;;;;;115.85;47.17;;;;;;;-2.78;100.00;98405.63;2071092;28;20231;-72
2020/12/10 02:56:42;;;;;;;100.83;42.20;;;;;;;-2.82;100.00;98393.22;2079738;28;20255;-73
2020/12/10 02:57:43;;;;;;;114.45;46.50;;;;;;;-2.80;100.00;98406.84;2079161;28;20234;-73
2020/12/10 02:58:45;;;;;;;107.43;44.63;;;;;;;-2.76;100.00;98402.78;2079859;28;20219;-73
2020/12/10 02:59:45;;;;;;;113.22;44.90;;;;;;;-2.73;100.00;98399.69;2080444;28;20276;-73
2020/12/10 03:00:46;;;;;;;107.67;42.17;;;;;;;-2.71;100.00;98397.66;2080493;28;20277;-73
2020/12/10 03:01:51;;;;;;;104.13;45.80;;;;;;;-2.76;100.00;98379.28;2079660;28;20581;-72
2020/12/10 03:02:52;;;;;;;102.45;42.90;;;;;;;-2.73;100.00;98402.31;2079362;28;20314;-73
2020/12/10 03:03:53;;;;;;;107.40;44.65;;;;;;;-2.73;100.00;98399.69;2079763;28;20232;-73
2020/12/10 03:04:54;;;;;;;101.60;43.47;;;;;;;-2.67;100.00;98393.59;2079723;28;20241;-72
2020/12/10 03:05:55;;;;;;;106.93;44.00;;;;;;;-2.73;100.00;98402.31;2080670;28;20705;-73
2020/12/10 03:06:56;;;;;;;112.17;45.90;;;;;;;-2.80;100.00;98384.13;2080546;28;20649;-73
2020/12/10 03:07:56;;;;;;;103.93;45.90;;;;;;;-2.94;100.00;98370.53;2080453;28;20238;-73
2020/12/10 03:08:58;;;;;;;102.13;42.17;;;;;;;-2.77;100.00;98393.34;2080345;28;20310;-73
2020/12/10 03:09:59;;;;;;;112.35;44.95;;;;;;;-2.77;100.00;98390.75;2080467;28;20227;-73
2020/12/10 03:11:00;;;;;;;108.80;46.17;;;;;;;-2.87;100.00;98381.66;2080529;28;20277;-73
2020/12/10 03:12:01;;;;;;;101.20;42.50;;;;;;;-2.75;100.00;98386.88;2079773;28;20693;-73
2020/12/10 03:13:03;;;;;;;114.27;44.53;;;;;;;-2.71;100.00;98382.00;2079836;28;20626;-73
2020/12/10 03:14:03;;;;;;;107.22;42.30;;;;;;;-2.75;100.00;98379.06;2080583;28;20231;-73
2020/12/10 03:15:05;;;;;;;109.17;44.13;;;;;;;-2.72;100.00;98380.41;2080473;28;20239;-73
2020/12/10 03:16:06;;;;;;;103.90;42.40;;;;;;;-2.62;100.00;98388.47;2079495;28;20223;-73
2020/12/10 03:17:07;;;;;;;102.73;42.80;;;;;;;-2.71;100.00;98376.78;2071050;28;20220;-73
2020/12/10 03:18:08;;;;;;;108.22;43.88;;;;;;;-2.68;100.00;98378.94;2079777;28;20280;-73
2020/12/10 03:19:09;;;;;;;115.00;46.23;;;;;;;-2.76;100.00;98376.66;2079652;28;20223;-73
2020/12/10 03:20:09;;;;;;;104.85;46.05;;;;;;;-2.83;100.00;98379.38;2079702;28;20700;-73
2020/12/10 03:21:11;;;;;;;110.33;44.47;;;;;;;-2.90;100.00;98379.47;2080498;28;20643;-73
2020/12/10 03:22:13;;;;;;;116.20;45.67;;;;;;;-2.86;100.00;98378.03;2079573;28;27352;-73
2020/12/10 03:23:14;;;;;;;114.30;46.03;;;;;;;-2.80;100.00;98378.91;2079674;28;20223;-73
2020/12/10 03:24:15;;;;;;;117.65;47.83;;;;;;;-2.67;100.00;98370.09;2079126;28;20215;-73
2020/12/10 03:25:17;;;;;;;112.30;47.20;;;;;;;-2.71;100.00;98376.78;2079805;28;20231;-73
2020/12/10 03:26:17;;;;;;;114.50;46.70;;;;;;;-2.79;100.00;98372.69;2080477;28;20223;-73
2020/12/10 03:27:18;;;;;;;106.73;46.50;;;;;;;-2.80;100.00;98349.41;2080294;28;20231;-72
2020/12/10 03:28:19;;;;;;;111.13;44.25;;;;;;;-2.66;100.00;98366.44;2079902;28;20693;-73
2020/12/10 03:29:20;;;;;;;107.27;44.53;;;;;;;-2.80;100.00;98354.63;2080150;28;20614;-72
2020/12/10 03:30:21;;;;;;;111.60;46.97;;;;;;;-2.82;100.00;98364.50;2079657;28;20223;-73
2020/12/10 03:31:22;;;;;;;102.33;41.97;;;;;;;-2.76;100.00;98361.81;2071104;28;20224;-73
2020/12/10 03:32:23;;;;;;;115.65;44.88;;;;;;;-2.86;100.00;98372.00;2079481;28;20227;-73
2020/12/10 03:33:24;;;;;;;116.03;46.50;;;;;;;-2.89;100.00;98360.19;2079615;28;20335;-73
2020/12/10 03:34:25;;;;;;;112.18;44.13;;;;;;;-2.91;100.00;98351.81;2079561;28;20705;-73
2020/12/10 03:35:27;;;;;;;108.60;45.17;;;;;;;-2.86;100.00;98361.56;2080458;28;20575;-73
2020/12/10 03:36:30;;;;;;;114.72;46.00;;;;;;;-2.83;100.00;98360.31;2080359;28;20724;-73
2020/12/10 03:37:31;;;;;;;111.00;44.80;;;;;;;-2.83;100.00;98361.13;2080393;28;20281;-73
2020/12/10 03:38:32;;;;;;;116.95;45.15;;;;;;;-2.80;100.00;98360.66;2079528;28;20223;-73
2020/12/10 03:39:34;;;;;;;109.83;43.30;;;;;;;-2.71;100.00;98353.28;2071284;28;20231;-72
2020/12/10 03:40:34;;;;;;;106.28;41.97;;;;;;;-2.79;100.00;98349.19;2079668;28;20294;-73
2020/12/10 03:41:36;;;;;;;101.87;41.43;;;;;;;-2.70;100.00;98360.06;2080339;28;20759;-73
2020/12/10 03:42:36;;;;;;;119.95;45.40;;;;;;;-2.76;100.00;98355.78;2079499;28;20222;-72
2020/12/10 03:43:37;;;;;;;113.10;43.80;;;;;;;-2.76;100.00;98353.19;2079269;28;20697;-73
2020/12/10 03:44:38;;;;;;;97.10;42.10;;;;;;;-2.71;100.00;98348.06;2080234;28;20230;-74
2020/12/10 03:45:39;;;;;;;110.27;44.40;;;;;;;-2.71;100.00;98350.66;2079339;28;20298;-73
2020/12/10 03:46:40;;;;;;;107.85;45.90;;;;;;;-2.70;100.00;98358.25;2079579;28;20227;-73
2020/12/10 03:47:41;;;;;;;110.60;45.30;;;;;;;-2.78;100.00;98352.59;2080183;28;20254;-73
2020/12/10 03:48:42;;;;;;;111.00;44.03;;;;;;;-2.85;100.00;98345.69;2080306;28;20231;-73
2020/12/10 03:49:43;;;;;;;115.90;44.60;;;;;;;-2.90;100.00;98348.16;2080457;28;20227;-72
2020/12/10 03:50:44;;;;;;;113.68;44.58;;;;;;;-2.88;100.00;98348.72;2079440;28;20233;-72
2020/12/10 03:51:46;;;;;;;113.50;43.27;;;;;;;-2.91;100.00;98341.34;2079628;28;20310;-73
2020/12/10 03:52:46;;;;;;;106.38;42.92;;;;;;;-2.91;100.00;98332.75;2080143;28;20219;-73
2020/12/10 03:53:47;;;;;;;111.13;41.27;;;;;;;-2.68;100.00;98335.34;2079005;28;20230;-73
2020/12/10 03:54:49;;;;;;;95.93;40.78;;;;;;;-2.65;100.00;98341.94;2071264;28;20227;-72
2020/12/10 03:55:50;;;;;;;106.25;42.45;;;;;;;-2.73;100.00;98332.63;2071210;28;20251;-73
2020/12/10 03:56:51;;;;;;;103.85;44.22;;;;;;;-2.72;100.00;98328.19;2079601;28;20230;-73
2020/12/10 03:57:52;;;;;;;105.70;43.90;;;;;;;-2.65;100.00;98331.47;2079934;28;20306;-74
2020/12/10 03:58:53;;;;;;;113.60;43.28;;;;;;;-2.71;100.00;98338.41;2080213;28;20242;-73
2020/12/10 03:59:54;;;;;;;106.90;42.73;;;;;;;-2.72;100.00;98342.03;2080252;28;20246;-73
2020/12/10 04:00:54;;;;;;;104.97;42.70;;;;;;;-2.67;100.00;98339.56;2080118;28;20227;-73
2020/12/10 04:01:56;;;;;;;112.33;45.10;;;;;;;-2.77;100.00;98336.72;2080137;28;20231;-73
2020/12/10 04:02:56;;;;;;;114.05;43.75;;;;;;;-2.77;100.00;98330.72;2078828;28;20254;-73
2020/12/10 04:03:58;;;;;;;116.73;47.30;;;;;;;-2.73;100.00;98332.63;2079625;28;20693;-73
2020/12/10 04:04:58;;;;;;;123.13;46.35;;;;;;;-2.71;100.00;98329.78;2080262;28;20227;-73
2020/12/10 04:05:59;;;;;;;119.77;47.07;;;;;;;-2.68;100.00;98335.34;2079251;28;20227;-73
2020/12/10 04:07:00;;;;;;;115.75;46.28;;;;;;;-2.73;100.00;98324.78;2079549;28;20219;-73
2020/12/10 04:08:01;;;;;;;122.93;44.97;;;;;;;-2.78;100.00;98300.38;2080035;28;20310;-73
2020/12/10 04:09:02;;;;;;;104.95;42.25;;;;;;;-2.64;100.00;98333.06;2080024;28;20775;-72
2020/12/10 04:10:05;;;;;;;108.40;45.67;;;;;;;-2.63;100.00;98327.63;2079452;28;20642;-72
2020/12/10 04:11:06;;;;;;;99.63;44.00;;;;;;;-2.62;100.00;98333.63;2071449;28;20775;-73
2020/12/10 04:12:07;;;;;;;100.47;39.97;;;;;;;-2.68;100.00;98322.31;2071205;28;20239;-73
2020/12/10 04:13:07;;;;;;;114.40;43.47;;;;;;;-2.73;100.00;98326.59;2070995;28;20251;-73
2020/12/10 04:14:09;;;;;;;102.77;43.77;;;;;;;-2.74;100.00;98335.47;2079583;28;20227;-73
2020/12/10 04:15:10;;;;;;;97.47;42.45;;;;;;;-2.78;100.00;98331.69;2080260;28;20274;-73
2020/12/10 04:16:11;;;;;;;109.70;44.10;;;;;;;-2.77;100.00;98343.75;2079403;28;20231;-73
2020/12/10 04:17:12;;;;;;;106.80;45.85;;;;;;;-2.86;100.00;98336.25;2079494;28;20732;-72
2020/12/10 04:18:13;;;;;;;104.00;44.93;;;;;;;-2.86;100.00;98344.09;2080263;28;20669;-73
2020/12/10 04:19:14;;;;;;;111.45;46.30;;;;;;;-2.89;100.00;98344.53;2079397;28;20580;-73
2020/12/10 04:20:15;;;;;;;104.43;42.60;;;;;;;-2.99;100.00;98314.81;2079538;28;20330;-73
2020/12/10 04:21:16;;;;;;;109.75;44.10;;;;;;;-2.84;100.00;98341.25;2080046;28;20579;-73
2020/12/10 04:22:17;;;;;;;114.17;45.77;;;;;;;-2.75;100.00;98333.88;2080195;28;20224;-73
2020/12/10 04:23:18;;;;;;;112.50;45.92;;;;;;;-2.83;100.00;98324.56;2080094;28;20223;-72
2020/12/10 04:24:19;;;;;;;109.87;43.93;;;;;;;-2.73;100.00;98330.00;2079428;28;20243;-73
2020/12/10 04:25:20;;;;;;;109.32;43.95;;;;;;;-2.70;100.00;98333.97;2079342;28;20633;-73
2020/12/10 04:26:22;;;;;;;110.18;44.20;;;;;;;-2.71;100.00;98335.00;2080168;28;20242;-73
2020/12/10 04:27:22;;;;;;;118.07;43.90;;;;;;;-2.72;100.00;98325.59;2079833;28;20223;-73
2020/12/10 04:28:24;;;;;;;104.10;43.90;;;;;;;-2.67;100.00;98330.94;2078207;28;20251;-73
2020/12/10 04:29:24;;;;;;;107.60;42.15;;;;;;;-2.76;100.00;98324.47;2071151;28;20227;-73
2020/12/10 04:30:26;;;;;;;105.43;40.93;;;;;;;-2.85;100.00;98316.19;2079278;28;20307;-72
2020/12/10 04:31:26;;;;;;;104.47;41.22;;;;;;;-2.79;100.00;98317.06;2080191;28;22799;-73
2020/12/10 04:32:27;;;;;;;98.67;40.07;;;;;;;-2.68;100.00;98311.06;2080119;28;20235;-73
2020/12/10 04:33:28;;;;;;;95.55;39.65;;;;;;;-2.67;100.00;98308.22;2079172;28;20220;-73
2020/12/10 04:34:29;;;;;;;96.77;40.80;;;;;;;-2.68;100.00;98318.91;2079547;28;20652;-73
2020/12/10 04:35:30;;;;;;;94.68;41.35;;;;;;;-2.64;100.00;98320.81;2078958;28;20220;-72
2020/12/10 04:36:31;;;;;;;97.57;40.50;;;;;;;-2.78;100.00;98310.81;2079424;28;20748;-73